sensor_id;sensor_type;location;lat;lon;timestamp;P1;durP1;ratioP1;P2;durP2;ratioP2
48263;SDS011;34086;51.076;13.722;2022-12-18T00:00:30;99.22;;;45.78;;
48263;SDS011;34086;51.076;13.722;2022-12-18T00:01:39;99.22;;;45.15;;
48263;SDS011;34086;51.076;13.722;2022-12-18T00:02:40;89.68;;;42.80;;
48263;SDS011;34086;51.076;13.722;2022-12-18T00:03:41;96.50;;;44.53;;
48263;SDS011;34086;51.076;13.722;2022-12-18T00:04:42;91.05;;;43.53;;
48263;SDS011;34086;51.076;13.722;2022-12-18T00:05:50;91.35;;;43.28;;
48263;SDS011;34086;51.076;13.722;2022-12-18T00:06:55;95.15;;;43.47;;
48263;SDS011;34086;51.076;13.722;2022-12-18T00:07:56;92.15;;;42.22;;
48263;SDS011;34086;51.076;13.722;2022-12-18T00:08:58;95.30;;;43.47;;
48263;SDS011;34086;51.076;13.722;2022-12-18T00:09:59;93.22;;;43.80;;
48263;SDS011;34086;51.076;13.722;2022-12-18T00:11:06;93.78;;;42.05;;
48263;SDS011;34086;51.076;13.722;2022-12-18T00:12:08;97.70;;;43.60;;
48263;SDS011;34086;51.076;13.722;2022-12-18T00:13:09;89.10;;;41.03;;
48263;SDS011;34086;51.076;13.722;2022-12-18T00:14:11;93.47;;;43.00;;
48263;SDS011;34086;51.076;13.722;2022-12-18T00:15:13;95.63;;;43.13;;
48263;SDS011;34086;51.076;13.722;2022-12-18T00:16:15;93.63;;;43.25;;
48263;SDS011;34086;51.076;13.722;2022-12-18T00:17:20;92.15;;;41.65;;
48263;SDS011;34086;51.076;13.722;2022-12-18T00:18:21;90.53;;;42.13;;
48263;SDS011;34086;51.076;13.722;2022-12-18T00:19:22;87.78;;;41.13;;
48263;SDS011;34086;51.076;13.722;2022-12-18T00:20:24;86.50;;;41.58;;
48263;SDS011;34086;51.076;13.722;2022-12-18T00:21:26;91.13;;;42.25;;
48263;SDS011;34086;51.076;13.722;2022-12-18T00:22:28;95.10;;;42.45;;
48263;SDS011;34086;51.076;13.722;2022-12-18T00:23:29;90.25;;;42.50;;
48263;SDS011;34086;51.076;13.722;2022-12-18T00:24:41;98.03;;;43.90;;
48263;SDS011;34086;51.076;13.722;2022-12-18T00:25:42;91.55;;;42.22;;
48263;SDS011;34086;51.076;13.722;2022-12-18T00:26:43;97.47;;;43.58;;
48263;SDS011;34086;51.076;13.722;2022-12-18T00:27:48;91.82;;;43.40;;
48263;SDS011;34086;51.076;13.722;2022-12-18T00:28:49;93.55;;;43.92;;
48263;SDS011;34086;51.076;13.722;2022-12-18T00:29:50;94.30;;;43.50;;
48263;SDS011;34086;51.076;13.722;2022-12-18T00:30:58;93.75;;;43.75;;
48263;SDS011;34086;51.076;13.722;2022-12-18T00:32:10;97.90;;;42.65;;
48263;SDS011;34086;51.076;13.722;2022-12-18T00:33:11;94.93;;;43.28;;
48263;SDS011;34086;51.076;13.722;2022-12-18T00:34:12;94.25;;;43.83;;
48263;SDS011;34086;51.076;13.722;2022-12-18T00:35:13;101.70;;;44.88;;
48263;SDS011;34086;51.076;13.722;2022-12-18T00:36:18;95.20;;;43.42;;
48263;SDS011;34086;51.076;13.722;2022-12-18T00:37:20;103.75;;;44.72;;
48263;SDS011;34086;51.076;13.722;2022-12-18T00:38:24;99.40;;;45.70;;
48263;SDS011;34086;51.076;13.722;2022-12-18T00:39:25;100.75;;;45.67;;
48263;SDS011;34086;51.076;13.722;2022-12-18T00:40:26;103.32;;;46.67;;
48263;SDS011;34086;51.076;13.722;2022-12-18T00:41:27;104.38;;;46.17;;
48263;SDS011;34086;51.076;13.722;2022-12-18T00:42:47;105.65;;;47.65;;
48263;SDS011;34086;51.076;13.722;2022-12-18T00:43:58;109.93;;;45.63;;
48263;SDS011;34086;51.076;13.722;2022-12-18T00:44:59;110.80;;;47.65;;
48263;SDS011;34086;51.076;13.722;2022-12-18T00:45:59;112.95;;;48.72;;
48263;SDS011;34086;51.076;13.722;2022-12-18T00:47:01;116.55;;;50.00;;
48263;SDS011;34086;51.076;13.722;2022-12-18T00:48:01;118.38;;;48.42;;
48263;SDS011;34086;51.076;13.722;2022-12-18T00:49:03;121.20;;;48.58;;
48263;SDS011;34086;51.076;13.722;2022-12-18T00:50:04;111.47;;;48.25;;
48263;SDS011;34086;51.076;13.722;2022-12-18T00:51:05;109.30;;;45.67;;
48263;SDS011;34086;51.076;13.722;2022-12-18T00:52:06;104.43;;;45.83;;
48263;SDS011;34086;51.076;13.722;2022-12-18T00:53:07;101.65;;;45.15;;
48263;SDS011;34086;51.076;13.722;2022-12-18T00:54:11;106.10;;;46.03;;
48263;SDS011;34086;51.076;13.722;2022-12-18T00:55:12;94.13;;;43.33;;
48263;SDS011;34086;51.076;13.722;2022-12-18T00:56:14;108.70;;;46.28;;
48263;SDS011;34086;51.076;13.722;2022-12-18T00:57:15;101.97;;;44.58;;
48263;SDS011;34086;51.076;13.722;2022-12-18T00:58:17;97.93;;;43.83;;
48263;SDS011;34086;51.076;13.722;2022-12-18T00:59:18;96.47;;;44.05;;
48263;SDS011;34086;51.076;13.722;2022-12-18T01:00:24;101.38;;;44.13;;
48263;SDS011;34086;51.076;13.722;2022-12-18T01:01:25;101.05;;;44.63;;
48263;SDS011;34086;51.076;13.722;2022-12-18T01:02:25;99.57;;;44.72;;
48263;SDS011;34086;51.076;13.722;2022-12-18T01:03:26;100.55;;;45.72;;
48263;SDS011;34086;51.076;13.722;2022-12-18T01:04:27;105.18;;;46.40;;
48263;SDS011;34086;51.076;13.722;2022-12-18T01:05:28;115.00;;;47.80;;
48263;SDS011;34086;51.076;13.722;2022-12-18T01:06:29;104.00;;;47.13;;
48263;SDS011;34086;51.076;13.722;2022-12-18T01:07:30;116.40;;;49.17;;
48263;SDS011;34086;51.076;13.722;2022-12-18T01:08:30;104.85;;;46.83;;
48263;SDS011;34086;51.076;13.722;2022-12-18T01:09:33;101.47;;;45.58;;
48263;SDS011;34086;51.076;13.722;2022-12-18T01:10:34;105.47;;;45.72;;
48263;SDS011;34086;51.076;13.722;2022-12-18T01:11:36;98.07;;;44.08;;
48263;SDS011;34086;51.076;13.722;2022-12-18T01:12:38;103.35;;;44.55;;
48263;SDS011;34086;51.076;13.722;2022-12-18T01:13:39;101.47;;;45.15;;
48263;SDS011;34086;51.076;13.722;2022-12-18T01:14:39;98.97;;;44.58;;
48263;SDS011;34086;51.076;13.722;2022-12-18T01:15:47;100.75;;;44.20;;
48263;SDS011;34086;51.076;13.722;2022-12-18T01:16:50;95.22;;;42.72;;
48263;SDS011;34086;51.076;13.722;2022-12-18T01:17:53;102.90;;;44.50;;
48263;SDS011;34086;51.076;13.722;2022-12-18T01:18:54;102.97;;;44.72;;
48263;SDS011;34086;51.076;13.722;2022-12-18T01:19:56;94.47;;;43.33;;
48263;SDS011;34086;51.076;13.722;2022-12-18T01:20:57;92.70;;;43.08;;
48263;SDS011;34086;51.076;13.722;2022-12-18T01:21:58;94.75;;;42.83;;
48263;SDS011;34086;51.076;13.722;2022-12-18T01:22:58;98.07;;;42.83;;
48263;SDS011;34086;51.076;13.722;2022-12-18T01:24:00;102.22;;;43.95;;
48263;SDS011;34086;51.076;13.722;2022-12-18T01:25:02;95.20;;;43.15;;
48263;SDS011;34086;51.076;13.722;2022-12-18T01:26:08;98.55;;;44.03;;
48263;SDS011;34086;51.076;13.722;2022-12-18T01:27:11;100.95;;;44.33;;
48263;SDS011;34086;51.076;13.722;2022-12-18T01:28:13;103.47;;;44.05;;
48263;SDS011;34086;51.076;13.722;2022-12-18T01:29:14;103.93;;;43.17;;
48263;SDS011;34086;51.076;13.722;2022-12-18T01:30:16;100.70;;;44.10;;
48263;SDS011;34086;51.076;13.722;2022-12-18T01:31:22;95.72;;;41.85;;
48263;SDS011;34086;51.076;13.722;2022-12-18T01:32:24;101.10;;;44.65;;
48263;SDS011;34086;51.076;13.722;2022-12-18T01:33:26;99.00;;;44.38;;
48263;SDS011;34086;51.076;13.722;2022-12-18T01:34:26;99.03;;;43.22;;
48263;SDS011;34086;51.076;13.722;2022-12-18T01:35:27;101.53;;;43.72;;
48263;SDS011;34086;51.076;13.722;2022-12-18T01:36:29;99.80;;;42.88;;
48263;SDS011;34086;51.076;13.722;2022-12-18T01:37:32;100.30;;;43.88;;
48263;SDS011;34086;51.076;13.722;2022-12-18T01:38:33;99.30;;;44.40;;
48263;SDS011;34086;51.076;13.722;2022-12-18T01:39:34;103.88;;;44.42;;
48263;SDS011;34086;51.076;13.722;2022-12-18T01:40:35;96.65;;;44.25;;
48263;SDS011;34086;51.076;13.722;2022-12-18T01:41:36;98.47;;;43.72;;
48263;SDS011;34086;51.076;13.722;2022-12-18T01:42:57;103.32;;;43.97;;
48263;SDS011;34086;51.076;13.722;2022-12-18T01:43:59;96.75;;;43.65;;
48263;SDS011;34086;51.076;13.722;2022-12-18T01:46:17;102.30;;;43.65;;
48263;SDS011;34086;51.076;13.722;2022-12-18T01:47:21;104.68;;;45.65;;
48263;SDS011;34086;51.076;13.722;2022-12-18T01:48:41;100.40;;;44.30;;
48263;SDS011;34086;51.076;13.722;2022-12-18T01:49:43;100.57;;;45.05;;
48263;SDS011;34086;51.076;13.722;2022-12-18T01:50:44;100.20;;;44.55;;
48263;SDS011;34086;51.076;13.722;2022-12-18T01:51:45;97.68;;;43.13;;
48263;SDS011;34086;51.076;13.722;2022-12-18T01:52:50;97.78;;;44.15;;
48263;SDS011;34086;51.076;13.722;2022-12-18T01:53:54;97.32;;;42.08;;
48263;SDS011;34086;51.076;13.722;2022-12-18T01:54:55;92.50;;;41.78;;
48263;SDS011;34086;51.076;13.722;2022-12-18T01:55:59;90.25;;;40.75;;
48263;SDS011;34086;51.076;13.722;2022-12-18T01:57:01;96.05;;;41.75;;
48263;SDS011;34086;51.076;13.722;2022-12-18T01:58:03;94.68;;;42.60;;
48263;SDS011;34086;51.076;13.722;2022-12-18T01:59:05;97.07;;;42.08;;
48263;SDS011;34086;51.076;13.722;2022-12-18T02:00:12;92.78;;;41.78;;
48263;SDS011;34086;51.076;13.722;2022-12-18T02:01:16;98.18;;;42.17;;
48263;SDS011;34086;51.076;13.722;2022-12-18T02:02:17;95.30;;;42.55;;
48263;SDS011;34086;51.076;13.722;2022-12-18T02:03:19;93.72;;;41.50;;
48263;SDS011;34086;51.076;13.722;2022-12-18T02:04:24;94.20;;;40.65;;
48263;SDS011;34086;51.076;13.722;2022-12-18T02:05:32;93.72;;;40.70;;
48263;SDS011;34086;51.076;13.722;2022-12-18T02:06:45;92.07;;;40.20;;
48263;SDS011;34086;51.076;13.722;2022-12-18T02:07:51;94.22;;;41.03;;
48263;SDS011;34086;51.076;13.722;2022-12-18T02:09:09;93.80;;;40.17;;
48263;SDS011;34086;51.076;13.722;2022-12-18T02:15:19;90.40;;;39.85;;
48263;SDS011;34086;51.076;13.722;2022-12-18T02:17:54;87.15;;;38.15;;
48263;SDS011;34086;51.076;13.722;2022-12-18T02:24:28;86.40;;;38.20;;
48263;SDS011;34086;51.076;13.722;2022-12-18T02:27:06;84.57;;;37.63;;
48263;SDS011;34086;51.076;13.722;2022-12-18T02:28:11;85.93;;;38.70;;
48263;SDS011;34086;51.076;13.722;2022-12-18T02:29:16;81.78;;;37.97;;
48263;SDS011;34086;51.076;13.722;2022-12-18T02:30:21;85.07;;;38.45;;
48263;SDS011;34086;51.076;13.722;2022-12-18T02:31:24;85.35;;;38.63;;
48263;SDS011;34086;51.076;13.722;2022-12-18T02:32:30;88.25;;;37.00;;
48263;SDS011;34086;51.076;13.722;2022-12-18T02:33:35;83.68;;;37.25;;
48263;SDS011;34086;51.076;13.722;2022-12-18T02:34:38;82.65;;;36.40;;
48263;SDS011;34086;51.076;13.722;2022-12-18T02:35:41;85.97;;;38.20;;
48263;SDS011;34086;51.076;13.722;2022-12-18T02:36:44;86.75;;;37.28;;
48263;SDS011;34086;51.076;13.722;2022-12-18T02:37:47;87.70;;;37.65;;
48263;SDS011;34086;51.076;13.722;2022-12-18T02:38:48;81.13;;;37.72;;
48263;SDS011;34086;51.076;13.722;2022-12-18T02:39:53;81.82;;;36.55;;
48263;SDS011;34086;51.076;13.722;2022-12-18T02:40:57;85.45;;;37.05;;
48263;SDS011;34086;51.076;13.722;2022-12-18T02:41:58;85.22;;;37.28;;
48263;SDS011;34086;51.076;13.722;2022-12-18T02:43:09;79.28;;;36.42;;
48263;SDS011;34086;51.076;13.722;2022-12-18T02:44:14;82.32;;;35.90;;
48263;SDS011;34086;51.076;13.722;2022-12-18T02:45:16;74.35;;;34.67;;
48263;SDS011;34086;51.076;13.722;2022-12-18T02:46:24;77.82;;;34.95;;
48263;SDS011;34086;51.076;13.722;2022-12-18T02:47:31;77.97;;;35.33;;
48263;SDS011;34086;51.076;13.722;2022-12-18T02:48:37;76.90;;;34.15;;
48263;SDS011;34086;51.076;13.722;2022-12-18T02:51:07;71.18;;;33.40;;
48263;SDS011;34086;51.076;13.722;2022-12-18T02:54:08;67.65;;;30.73;;
48263;SDS011;34086;51.076;13.722;2022-12-18T02:55:14;76.68;;;33.65;;
48263;SDS011;34086;51.076;13.722;2022-12-18T02:56:37;74.07;;;33.60;;
48263;SDS011;34086;51.076;13.722;2022-12-18T02:57:47;74.35;;;33.17;;
48263;SDS011;34086;51.076;13.722;2022-12-18T02:59:13;69.70;;;31.85;;
48263;SDS011;34086;51.076;13.722;2022-12-18T03:00:32;70.90;;;32.53;;
48263;SDS011;34086;51.076;13.722;2022-12-18T03:04:04;71.05;;;32.35;;
48263;SDS011;34086;51.076;13.722;2022-12-18T03:05:19;74.13;;;32.95;;
48263;SDS011;34086;51.076;13.722;2022-12-18T03:06:39;74.88;;;32.67;;
48263;SDS011;34086;51.076;13.722;2022-12-18T03:07:55;74.70;;;31.70;;
48263;SDS011;34086;51.076;13.722;2022-12-18T03:09:07;73.45;;;32.97;;
48263;SDS011;34086;51.076;13.722;2022-12-18T03:10:13;76.60;;;33.22;;
48263;SDS011;34086;51.076;13.722;2022-12-18T03:11:18;72.13;;;32.63;;
48263;SDS011;34086;51.076;13.722;2022-12-18T03:12:43;68.68;;;31.38;;
48263;SDS011;34086;51.076;13.722;2022-12-18T03:13:54;75.40;;;33.08;;
48263;SDS011;34086;51.076;13.722;2022-12-18T03:15:09;83.07;;;35.67;;
48263;SDS011;34086;51.076;13.722;2022-12-18T03:16:33;75.13;;;33.88;;
48263;SDS011;34086;51.076;13.722;2022-12-18T03:17:36;74.57;;;32.60;;
48263;SDS011;34086;51.076;13.722;2022-12-18T03:19:50;71.90;;;31.58;;
48263;SDS011;34086;51.076;13.722;2022-12-18T03:20:52;67.10;;;30.73;;
48263;SDS011;34086;51.076;13.722;2022-12-18T03:21:56;67.13;;;31.55;;
48263;SDS011;34086;51.076;13.722;2022-12-18T03:23:00;70.60;;;31.55;;
48263;SDS011;34086;51.076;13.722;2022-12-18T03:24:07;69.30;;;30.55;;
48263;SDS011;34086;51.076;13.722;2022-12-18T03:25:13;62.25;;;29.48;;
48263;SDS011;34086;51.076;13.722;2022-12-18T03:26:17;69.78;;;30.77;;
48263;SDS011;34086;51.076;13.722;2022-12-18T03:27:23;63.72;;;29.80;;
48263;SDS011;34086;51.076;13.722;2022-12-18T03:28:28;68.82;;;30.95;;
48263;SDS011;34086;51.076;13.722;2022-12-18T03:30:46;62.33;;;29.70;;
48263;SDS011;34086;51.076;13.722;2022-12-18T03:31:53;66.72;;;29.60;;
48263;SDS011;34086;51.076;13.722;2022-12-18T03:33:02;61.95;;;29.00;;
48263;SDS011;34086;51.076;13.722;2022-12-18T03:34:15;60.95;;;28.48;;
48263;SDS011;34086;51.076;13.722;2022-12-18T03:35:26;64.57;;;29.67;;
48263;SDS011;34086;51.076;13.722;2022-12-18T03:36:30;61.40;;;28.70;;
48263;SDS011;34086;51.076;13.722;2022-12-18T03:37:32;61.22;;;27.90;;
48263;SDS011;34086;51.076;13.722;2022-12-18T03:38:33;57.08;;;27.08;;
48263;SDS011;34086;51.076;13.722;2022-12-18T03:39:34;55.60;;;25.95;;
48263;SDS011;34086;51.076;13.722;2022-12-18T03:42:18;57.33;;;26.77;;
48263;SDS011;34086;51.076;13.722;2022-12-18T03:43:28;59.78;;;26.35;;
48263;SDS011;34086;51.076;13.722;2022-12-18T03:44:50;59.15;;;26.63;;
48263;SDS011;34086;51.076;13.722;2022-12-18T03:46:24;60.45;;;27.30;;
48263;SDS011;34086;51.076;13.722;2022-12-18T03:47:33;56.60;;;26.08;;
48263;SDS011;34086;51.076;13.722;2022-12-18T03:48:46;59.55;;;26.90;;
48263;SDS011;34086;51.076;13.722;2022-12-18T03:49:57;56.70;;;26.10;;
48263;SDS011;34086;51.076;13.722;2022-12-18T03:51:14;60.17;;;26.88;;
48263;SDS011;34086;51.076;13.722;2022-12-18T03:54:56;60.45;;;27.33;;
48263;SDS011;34086;51.076;13.722;2022-12-18T03:56:00;58.58;;;27.40;;
48263;SDS011;34086;51.076;13.722;2022-12-18T03:57:08;59.40;;;27.40;;
48263;SDS011;34086;51.076;13.722;2022-12-18T03:58:15;63.90;;;27.75;;
48263;SDS011;34086;51.076;13.722;2022-12-18T03:59:29;60.38;;;27.70;;
48263;SDS011;34086;51.076;13.722;2022-12-18T04:00:31;63.05;;;27.92;;
48263;SDS011;34086;51.076;13.722;2022-12-18T04:01:48;62.92;;;27.13;;
48263;SDS011;34086;51.076;13.722;2022-12-18T04:02:54;63.28;;;27.13;;
48263;SDS011;34086;51.076;13.722;2022-12-18T04:04:05;58.60;;;27.30;;
48263;SDS011;34086;51.076;13.722;2022-12-18T04:05:10;62.17;;;28.08;;
48263;SDS011;34086;51.076;13.722;2022-12-18T04:06:14;60.25;;;27.45;;
48263;SDS011;34086;51.076;13.722;2022-12-18T04:07:17;63.25;;;28.17;;
48263;SDS011;34086;51.076;13.722;2022-12-18T04:08:19;59.35;;;26.95;;
48263;SDS011;34086;51.076;13.722;2022-12-18T04:09:30;62.78;;;27.40;;
48263;SDS011;34086;51.076;13.722;2022-12-18T04:10:33;61.17;;;27.25;;
48263;SDS011;34086;51.076;13.722;2022-12-18T04:11:36;62.15;;;26.77;;
48263;SDS011;34086;51.076;13.722;2022-12-18T04:12:38;59.38;;;26.65;;
48263;SDS011;34086;51.076;13.722;2022-12-18T04:13:42;60.67;;;26.67;;
48263;SDS011;34086;51.076;13.722;2022-12-18T04:14:51;56.65;;;25.92;;
48263;SDS011;34086;51.076;13.722;2022-12-18T04:15:52;59.40;;;26.52;;
48263;SDS011;34086;51.076;13.722;2022-12-18T04:16:53;60.28;;;26.73;;
48263;SDS011;34086;51.076;13.722;2022-12-18T04:17:59;60.50;;;26.67;;
48263;SDS011;34086;51.076;13.722;2022-12-18T04:19:09;59.97;;;27.08;;
48263;SDS011;34086;51.076;13.722;2022-12-18T04:20:14;62.22;;;27.45;;
48263;SDS011;34086;51.076;13.722;2022-12-18T04:21:17;56.85;;;26.38;;
48263;SDS011;34086;51.076;13.722;2022-12-18T04:22:20;54.10;;;24.75;;
48263;SDS011;34086;51.076;13.722;2022-12-18T04:23:26;57.70;;;25.50;;
48263;SDS011;34086;51.076;13.722;2022-12-18T04:24:31;62.75;;;27.35;;
48263;SDS011;34086;51.076;13.722;2022-12-18T04:26:01;61.47;;;26.92;;
48263;SDS011;34086;51.076;13.722;2022-12-18T04:27:20;60.05;;;26.55;;
48263;SDS011;34086;51.076;13.722;2022-12-18T04:28:24;60.33;;;25.63;;
48263;SDS011;34086;51.076;13.722;2022-12-18T04:29:24;61.45;;;26.50;;
48263;SDS011;34086;51.076;13.722;2022-12-18T04:30:26;55.75;;;26.15;;
48263;SDS011;34086;51.076;13.722;2022-12-18T04:31:26;61.33;;;26.70;;
48263;SDS011;34086;51.076;13.722;2022-12-18T04:32:27;63.38;;;26.98;;
48263;SDS011;34086;51.076;13.722;2022-12-18T04:33:28;60.63;;;26.08;;
48263;SDS011;34086;51.076;13.722;2022-12-18T04:34:28;58.35;;;26.40;;
48263;SDS011;34086;51.076;13.722;2022-12-18T04:35:29;59.63;;;26.75;;
48263;SDS011;34086;51.076;13.722;2022-12-18T04:36:30;59.88;;;26.42;;
48263;SDS011;34086;51.076;13.722;2022-12-18T04:37:31;59.38;;;26.90;;
48263;SDS011;34086;51.076;13.722;2022-12-18T04:38:32;60.58;;;26.40;;
48263;SDS011;34086;51.076;13.722;2022-12-18T04:39:39;61.22;;;27.02;;
48263;SDS011;34086;51.076;13.722;2022-12-18T04:40:46;58.10;;;26.17;;
48263;SDS011;34086;51.076;13.722;2022-12-18T04:41:55;59.28;;;26.50;;
48263;SDS011;34086;51.076;13.722;2022-12-18T04:42:55;64.38;;;26.63;;
48263;SDS011;34086;51.076;13.722;2022-12-18T04:43:57;60.28;;;27.25;;
48263;SDS011;34086;51.076;13.722;2022-12-18T04:44:58;56.75;;;25.23;;
48263;SDS011;34086;51.076;13.722;2022-12-18T04:46:02;58.97;;;25.70;;
48263;SDS011;34086;51.076;13.722;2022-12-18T04:47:07;60.75;;;26.05;;
48263;SDS011;34086;51.076;13.722;2022-12-18T04:48:07;60.28;;;26.85;;
48263;SDS011;34086;51.076;13.722;2022-12-18T04:49:08;57.42;;;25.75;;
48263;SDS011;34086;51.076;13.722;2022-12-18T04:50:11;56.67;;;25.92;;
48263;SDS011;34086;51.076;13.722;2022-12-18T04:51:12;57.25;;;25.90;;
48263;SDS011;34086;51.076;13.722;2022-12-18T04:52:13;52.67;;;24.65;;
48263;SDS011;34086;51.076;13.722;2022-12-18T04:53:13;60.13;;;25.95;;
48263;SDS011;34086;51.076;13.722;2022-12-18T04:54:14;56.55;;;25.10;;
48263;SDS011;34086;51.076;13.722;2022-12-18T04:55:15;57.97;;;25.88;;
48263;SDS011;34086;51.076;13.722;2022-12-18T04:56:16;56.88;;;25.95;;
48263;SDS011;34086;51.076;13.722;2022-12-18T04:57:18;59.22;;;25.92;;
48263;SDS011;34086;51.076;13.722;2022-12-18T04:58:18;58.88;;;26.05;;
48263;SDS011;34086;51.076;13.722;2022-12-18T04:59:19;60.38;;;26.63;;
48263;SDS011;34086;51.076;13.722;2022-12-18T05:00:20;64.90;;;26.60;;
48263;SDS011;34086;51.076;13.722;2022-12-18T05:01:21;58.05;;;25.83;;
48263;SDS011;34086;51.076;13.722;2022-12-18T05:02:22;60.10;;;26.15;;
48263;SDS011;34086;51.076;13.722;2022-12-18T05:03:22;62.03;;;27.55;;
48263;SDS011;34086;51.076;13.722;2022-12-18T05:04:23;59.05;;;27.25;;
48263;SDS011;34086;51.076;13.722;2022-12-18T05:05:24;60.75;;;25.70;;
48263;SDS011;34086;51.076;13.722;2022-12-18T05:06:24;60.97;;;26.50;;
48263;SDS011;34086;51.076;13.722;2022-12-18T05:07:25;61.58;;;26.95;;
48263;SDS011;34086;51.076;13.722;2022-12-18T05:08:26;63.58;;;27.08;;
48263;SDS011;34086;51.076;13.722;2022-12-18T05:09:27;60.25;;;26.40;;
48263;SDS011;34086;51.076;13.722;2022-12-18T05:10:28;61.03;;;26.77;;
48263;SDS011;34086;51.076;13.722;2022-12-18T05:11:28;59.67;;;26.75;;
48263;SDS011;34086;51.076;13.722;2022-12-18T05:12:30;57.80;;;25.52;;
48263;SDS011;34086;51.076;13.722;2022-12-18T05:13:31;60.20;;;26.33;;
48263;SDS011;34086;51.076;13.722;2022-12-18T05:14:32;59.80;;;26.73;;
48263;SDS011;34086;51.076;13.722;2022-12-18T05:15:33;59.90;;;27.45;;
48263;SDS011;34086;51.076;13.722;2022-12-18T05:16:34;60.05;;;27.08;;
48263;SDS011;34086;51.076;13.722;2022-12-18T05:17:35;60.30;;;27.85;;
48263;SDS011;34086;51.076;13.722;2022-12-18T05:18:35;58.67;;;26.13;;
48263;SDS011;34086;51.076;13.722;2022-12-18T05:19:37;59.22;;;26.55;;
48263;SDS011;34086;51.076;13.722;2022-12-18T05:20:38;61.60;;;27.55;;
48263;SDS011;34086;51.076;13.722;2022-12-18T05:21:38;62.47;;;27.42;;
48263;SDS011;34086;51.076;13.722;2022-12-18T05:22:39;59.72;;;27.25;;
48263;SDS011;34086;51.076;13.722;2022-12-18T05:23:40;59.35;;;26.40;;
48263;SDS011;34086;51.076;13.722;2022-12-18T05:24:40;57.53;;;26.85;;
48263;SDS011;34086;51.076;13.722;2022-12-18T05:25:42;60.55;;;26.58;;
48263;SDS011;34086;51.076;13.722;2022-12-18T05:26:42;57.03;;;26.70;;
48263;SDS011;34086;51.076;13.722;2022-12-18T05:27:43;60.45;;;27.13;;
48263;SDS011;34086;51.076;13.722;2022-12-18T05:28:45;64.97;;;26.92;;
48263;SDS011;34086;51.076;13.722;2022-12-18T05:29:46;59.33;;;26.10;;
48263;SDS011;34086;51.076;13.722;2022-12-18T05:30:50;59.55;;;26.65;;
48263;SDS011;34086;51.076;13.722;2022-12-18T05:31:52;61.50;;;26.25;;
48263;SDS011;34086;51.076;13.722;2022-12-18T05:32:53;60.95;;;26.88;;
48263;SDS011;34086;51.076;13.722;2022-12-18T05:33:54;57.47;;;25.88;;
48263;SDS011;34086;51.076;13.722;2022-12-18T05:34:55;58.92;;;26.00;;
48263;SDS011;34086;51.076;13.722;2022-12-18T05:35:58;59.50;;;26.75;;
48263;SDS011;34086;51.076;13.722;2022-12-18T05:37:02;58.05;;;25.13;;
48263;SDS011;34086;51.076;13.722;2022-12-18T05:38:03;61.08;;;26.30;;
48263;SDS011;34086;51.076;13.722;2022-12-18T05:39:04;60.30;;;26.02;;
48263;SDS011;34086;51.076;13.722;2022-12-18T05:40:05;55.40;;;25.17;;
48263;SDS011;34086;51.076;13.722;2022-12-18T05:41:06;62.50;;;26.52;;
48263;SDS011;34086;51.076;13.722;2022-12-18T05:42:08;60.13;;;26.13;;
48263;SDS011;34086;51.076;13.722;2022-12-18T05:43:09;58.75;;;26.05;;
48263;SDS011;34086;51.076;13.722;2022-12-18T05:44:10;60.75;;;25.63;;
48263;SDS011;34086;51.076;13.722;2022-12-18T05:45:11;58.47;;;25.83;;
48263;SDS011;34086;51.076;13.722;2022-12-18T05:46:12;59.08;;;25.55;;
48263;SDS011;34086;51.076;13.722;2022-12-18T05:47:17;57.95;;;24.83;;
48263;SDS011;34086;51.076;13.722;2022-12-18T05:48:18;52.40;;;24.02;;
48263;SDS011;34086;51.076;13.722;2022-12-18T05:49:19;57.22;;;25.20;;
48263;SDS011;34086;51.076;13.722;2022-12-18T05:50:20;57.85;;;25.45;;
48263;SDS011;34086;51.076;13.722;2022-12-18T05:51:21;51.47;;;23.95;;
48263;SDS011;34086;51.076;13.722;2022-12-18T05:52:22;55.38;;;24.27;;
48263;SDS011;34086;51.076;13.722;2022-12-18T05:53:23;54.15;;;24.05;;
48263;SDS011;34086;51.076;13.722;2022-12-18T05:54:24;53.70;;;24.50;;
48263;SDS011;34086;51.076;13.722;2022-12-18T05:55:27;54.42;;;23.85;;
48263;SDS011;34086;51.076;13.722;2022-12-18T05:56:28;56.03;;;24.40;;
48263;SDS011;34086;51.076;13.722;2022-12-18T05:57:29;56.03;;;25.02;;
48263;SDS011;34086;51.076;13.722;2022-12-18T05:58:30;59.00;;;25.25;;
48263;SDS011;34086;51.076;13.722;2022-12-18T05:59:31;57.55;;;24.88;;
48263;SDS011;34086;51.076;13.722;2022-12-18T06:00:33;54.38;;;24.80;;
48263;SDS011;34086;51.076;13.722;2022-12-18T06:01:35;51.90;;;23.67;;
48263;SDS011;34086;51.076;13.722;2022-12-18T06:02:36;51.95;;;23.42;;
48263;SDS011;34086;51.076;13.722;2022-12-18T06:03:38;52.58;;;23.00;;
48263;SDS011;34086;51.076;13.722;2022-12-18T06:04:39;49.72;;;22.92;;
48263;SDS011;34086;51.076;13.722;2022-12-18T06:05:40;53.42;;;23.83;;
48263;SDS011;34086;51.076;13.722;2022-12-18T06:06:43;51.55;;;23.85;;
48263;SDS011;34086;51.076;13.722;2022-12-18T06:07:44;53.08;;;23.33;;
48263;SDS011;34086;51.076;13.722;2022-12-18T06:08:44;53.63;;;23.75;;
48263;SDS011;34086;51.076;13.722;2022-12-18T06:09:46;56.03;;;23.90;;
48263;SDS011;34086;51.076;13.722;2022-12-18T06:10:50;56.95;;;24.38;;
48263;SDS011;34086;51.076;13.722;2022-12-18T06:11:52;59.30;;;23.77;;
48263;SDS011;34086;51.076;13.722;2022-12-18T06:12:53;56.95;;;24.02;;
48263;SDS011;34086;51.076;13.722;2022-12-18T06:13:54;56.65;;;24.70;;
48263;SDS011;34086;51.076;13.722;2022-12-18T06:14:56;53.65;;;24.23;;
48263;SDS011;34086;51.076;13.722;2022-12-18T06:15:57;55.80;;;24.70;;
48263;SDS011;34086;51.076;13.722;2022-12-18T06:16:57;58.63;;;24.55;;
48263;SDS011;34086;51.076;13.722;2022-12-18T06:17:58;56.60;;;25.33;;
48263;SDS011;34086;51.076;13.722;2022-12-18T06:19:01;58.80;;;24.42;;
48263;SDS011;34086;51.076;13.722;2022-12-18T06:20:03;52.72;;;23.40;;
48263;SDS011;34086;51.076;13.722;2022-12-18T06:21:04;52.30;;;22.60;;
48263;SDS011;34086;51.076;13.722;2022-12-18T06:22:05;54.83;;;24.13;;
48263;SDS011;34086;51.076;13.722;2022-12-18T06:23:06;55.92;;;24.35;;
48263;SDS011;34086;51.076;13.722;2022-12-18T06:24:07;51.65;;;23.48;;
48263;SDS011;34086;51.076;13.722;2022-12-18T06:25:07;59.00;;;24.23;;
48263;SDS011;34086;51.076;13.722;2022-12-18T06:26:09;54.33;;;23.50;;
48263;SDS011;34086;51.076;13.722;2022-12-18T06:27:11;52.92;;;23.90;;
48263;SDS011;34086;51.076;13.722;2022-12-18T06:28:12;58.08;;;24.63;;
48263;SDS011;34086;51.076;13.722;2022-12-18T06:29:13;54.63;;;24.50;;
48263;SDS011;34086;51.076;13.722;2022-12-18T06:30:14;54.95;;;24.63;;
48263;SDS011;34086;51.076;13.722;2022-12-18T06:31:15;53.17;;;23.50;;
48263;SDS011;34086;51.076;13.722;2022-12-18T06:32:15;54.00;;;24.05;;
48263;SDS011;34086;51.076;13.722;2022-12-18T06:33:16;55.05;;;24.95;;
48263;SDS011;34086;51.076;13.722;2022-12-18T06:34:17;50.97;;;23.55;;